Eastpoint, Florida
Current Conditions -  °F | °C
As of 6:53 PM on Wednesday 28 Jan 2015 (Local Time) from KAAF Reporting Station
Clear Clear  
Wind Chill: 50°   Ceiling: Unl
Heat Index: 50°   Visibility: 10mi
Dew Point: 40°   Wind: 0mph
Humidity: 68%   Direction: NA
Pressure: 30.26"   Gusts: NA
Location:  29.74°N, 84.88°W
Report Text: KAAF 282353Z AUTO 00000KT 10SM CLR 10/04 A3026 RMK AO2 SLP247 T01000044 10144 20100 53009 TSNO
Loading
Personal Weather Stations






























Interactive Weather Map New forecast layout! Learn more

10-Day Weather Forecast

Advertisements
Track Severe Weather on mobile